Time,TemperatureF,DewpointF,PressureIn,WindDirection,WindDirectionDegrees,WindSpeedMPH,WindSpeedGustMPH,Humidity,HourlyPrecipIn,Conditions,Clouds,dailyrainin,SoftwareType,DateUTC
2013-02-14 00:08:00,52.4,50.0,29.85,WNW,302,3.0,7.0,90,0.00,,,0.00,weatherlink.com 1.10,2013-02-14 05:08:00,
2013-02-14 00:23:00,52.1,49.0,29.84,NW,313,3.0,8.0,90,0.00,,,0.00,weatherlink.com 1.10,2013-02-14 05:23:00,
2013-02-14 00:38:00,51.9,49.0,29.85,NW,326,3.0,7.0,90,0.00,,,0.00,weatherlink.com 1.10,2013-02-14 05:38:00,
2013-02-14 00:53:00,51.8,49.0,29.85,NW,312,2.0,11.0,90,0.00,,,0.00,weatherlink.com 1.10,2013-02-14 05:53:00,
2013-02-14 01:08:00,51.5,49.0,29.86,NW,322,3.0,5.0,91,0.00,,,0.00,weatherlink.com 1.10,2013-02-14 06:08:00,
2013-02-14 01:23:00,51.3,49.0,29.86,NW,312,2.0,7.0,91,0.00,,,0.00,weatherlink.com 1.10,2013-02-14 06:23:00,
2013-02-14 01:38:00,51.1,49.0,29.85,NW,309,2.0,6.0,91,0.00,,,0.00,weatherlink.com 1.10,2013-02-14 06:38:00,
2013-02-14 01:53:00,51.0,49.0,29.87,West,262,0.0,6.0,91,0.00,,,0.00,weatherlink.com 1.10,2013-02-14 06:53:00,
2013-02-14 02:08:00,50.8,48.0,29.88,WNW,298,2.0,3.0,91,0.00,,,0.00,weatherlink.com 1.10,2013-02-14 07:08:00,
2013-02-14 02:23:00,50.5,48.0,29.89,WNW,292,0.0,2.0,91,0.00,,,0.00,weatherlink.com 1.10,2013-02-14 07:23:00,
2013-02-14 02:38:00,50.2,48.0,29.90,WSW,258,0.0,1.0,91,0.00,,,0.00,weatherlink.com 1.10,2013-02-14 07:38:00,
2013-02-14 02:53:00,49.8,48.0,29.90,WNW,303,0.0,1.0,92,0.00,,,0.00,weatherlink.com 1.10,2013-02-14 07:53:00,
2013-02-14 03:08:00,49.7,47.0,29.91,WNW,298,0.0,2.0,91,0.00,,,0.00,weatherlink.com 1.10,2013-02-14 08:08:00,
2013-02-14 03:23:00,49.5,47.0,29.92,NW,322,1.0,2.0,91,0.00,,,0.00,weatherlink.com 1.10,2013-02-14 08:23:00,
2013-02-14 03:38:00,49.3,47.0,29.93,NW,312,0.0,1.0,91,0.00,,,0.00,weatherlink.com 1.10,2013-02-14 08:38:00,
2013-02-14 03:53:00,49.0,47.0,29.93,NW,322,0.0,1.0,91,0.00,,,0.00,weatherlink.com 1.10,2013-02-14 08:53:00,
2013-02-14 04:08:00,48.7,47.0,29.94,North,354,0.0,3.0,92,0.00,,,0.00,weatherlink.com 1.10,2013-02-14 09:08:00,
2013-02-14 04:23:00,48.3,44.0,29.96,North,2,1.0,6.0,86,0.00,,,0.00,weatherlink.com 1.10,2013-02-14 09:23:00,
2013-02-14 04:38:00,47.9,42.0,29.96,North,1,4.0,7.0,80,0.00,,,0.00,weatherlink.com 1.10,2013-02-14 09:38:00,
2013-02-14 04:53:00,47.3,41.0,29.97,North,357,4.0,10.0,78,0.00,,,0.00,weatherlink.com 1.10,2013-02-14 09:53:00,
2013-02-14 05:08:00,46.8,40.0,29.95,NNE,13,1.0,8.0,76,0.00,,,0.00,weatherlink.com 1.10,2013-02-14 10:08:00,
2013-02-14 05:23:00,46.3,38.0,29.95,NNW,338,1.0,7.0,74,0.00,,,0.00,weatherlink.com 1.10,2013-02-14 10:23:00,
2013-02-14 05:38:00,45.7,38.0,29.96,North,349,1.0,5.0,75,0.00,,,0.00,weatherlink.com 1.10,2013-02-14 10:38:00,
2013-02-14 05:54:00,45.1,38.0,29.97,NNE,12,0.0,2.0,77,0.00,,,0.00,weatherlink.com 1.10,2013-02-14 10:54:00,
2013-02-14 06:09:00,44.7,38.0,29.97,NNE,31,1.0,2.0,78,0.00,,,0.00,weatherlink.com 1.10,2013-02-14 11:09:00,
2013-02-14 06:24:00,44.2,38.0,29.98,North,2,0.0,1.0,80,0.00,,,0.00,weatherlink.com 1.10,2013-02-14 11:24:00,
2013-02-14 06:39:00,43.5,38.0,30.00,North,359,0.0,1.0,82,0.00,,,0.00,weatherlink.com 1.10,2013-02-14 11:39:00,
2013-02-14 06:54:00,42.9,39.0,30.00,North,353,0.0,1.0,85,0.00,,,0.00,weatherlink.com 1.10,2013-02-14 11:54:00,
2013-02-14 07:09:00,42.1,38.0,30.00,North,354,0.0,1.0,86,0.00,,,0.00,weatherlink.com 1.10,2013-02-14 12:09:00,
2013-02-14 07:24:00,41.8,39.0,30.01,North,355,0.0,0.0,89,0.00,,,0.00,weatherlink.com 1.10,2013-02-14 12:24:00,
2013-02-14 07:39:00,41.9,39.0,30.02,North,355,0.0,-999.0,89,-99.99,,,0.00,weatherlink.com 1.10,2013-02-14 12:39:00,
2013-02-14 07:54:00,43.3,40.0,30.02,NNW,340,1.0,1.0,88,0.00,,,0.00,weatherlink.com 1.10,2013-02-14 12:54:00,
2013-02-14 08:09:00,45.1,41.0,30.02,NNW,329,1.0,3.0,84,0.00,,,0.00,weatherlink.com 1.10,2013-02-14 13:09:00,
2013-02-14 08:24:00,46.5,41.0,30.04,NNE,20,2.0,6.0,80,0.00,,,0.00,weatherlink.com 1.10,2013-02-14 13:24:00,
2013-02-14 08:39:00,47.3,40.0,30.04,NNW,338,1.0,10.0,75,0.00,,,0.00,weatherlink.com 1.10,2013-02-14 13:39:00,
2013-02-14 08:54:00,48.1,39.0,30.04,NNE,28,2.0,9.0,72,0.00,,,0.00,weatherlink.com 1.10,2013-02-14 13:54:00,
2013-02-14 09:09:00,48.1,39.0,30.05,North,351,3.0,9.0,70,0.00,,,0.00,weatherlink.com 1.10,2013-02-14 14:09:00,
2013-02-14 09:24:00,48.8,38.0,30.05,NW,312,3.0,9.0,67,0.00,,,0.00,weatherlink.com 1.10,2013-02-14 14:24:00,
2013-02-14 09:39:00,49.6,39.0,30.06,ENE,70,2.0,6.0,68,0.00,,,0.00,weatherlink.com 1.10,2013-02-14 14:39:00,
2013-02-14 09:54:00,50.0,38.0,30.07,NE,48,6.0,9.0,63,0.00,,,0.00,weatherlink.com 1.10,2013-02-14 14:54:00,
2013-02-14 10:09:00,50.3,38.0,30.06,NE,40,3.0,6.0,64,0.00,,,0.00,weatherlink.com 1.10,2013-02-14 15:09:00,
2013-02-14 10:24:00,50.8,38.0,30.06,NNW,348,3.0,7.0,63,0.00,,,0.00,weatherlink.com 1.10,2013-02-14 15:24:00,
2013-02-14 10:39:00,51.0,37.0,30.06,NE,49,3.0,7.0,60,0.00,,,0.00,weatherlink.com 1.10,2013-02-14 15:39:00,
2013-02-14 10:54:00,50.6,37.0,30.06,North,355,2.0,6.0,61,0.00,,,0.00,weatherlink.com 1.10,2013-02-14 15:54:00,
2013-02-14 11:09:00,51.0,38.0,30.07,NW,318,4.0,7.0,61,0.00,,,0.00,weatherlink.com 1.10,2013-02-14 16:09:00,
2013-02-14 11:24:00,51.0,38.0,30.07,ENE,60,8.0,8.0,61,0.00,,,0.00,weatherlink.com 1.10,2013-02-14 16:24:00,
2013-02-14 11:39:00,50.9,38.0,30.08,NE,54,1.0,4.0,61,0.00,,,0.00,weatherlink.com 1.10,2013-02-14 16:39:00,
2013-02-14 11:54:00,51.2,37.0,30.07,SSW,205,0.0,5.0,59,0.00,,,0.00,weatherlink.com 1.10,2013-02-14 16:54:00,
2013-02-14 12:09:00,51.6,37.0,30.07,NNW,343,5.0,5.0,59,0.00,,,0.00,weatherlink.com 1.10,2013-02-14 17:09:00,
2013-02-14 12:24:00,51.8,38.0,30.05,NE,42,1.0,7.0,60,0.00,,,0.00,weatherlink.com 1.10,2013-02-14 17:24:00,
2013-02-14 12:39:00,51.5,38.0,30.05,North,352,5.0,6.0,60,0.00,,,0.00,weatherlink.com 1.10,2013-02-14 17:39:00,
2013-02-14 12:54:00,51.9,38.0,30.05,NW,313,0.0,4.0,59,0.00,,,0.00,weatherlink.com 1.10,2013-02-14 17:54:00,
2013-02-14 13:09:00,52.2,38.0,30.04,NE,42,3.0,7.0,59,0.00,,,0.00,weatherlink.com 1.10,2013-02-14 18:09:00,
2013-02-14 13:24:00,52.1,38.0,30.04,NNW,330,3.0,5.0,58,0.00,,,0.00,weatherlink.com 1.10,2013-02-14 18:24:00,
2013-02-14 13:39:00,52.0,37.0,30.03,NW,315,0.0,5.0,57,0.00,,,0.00,weatherlink.com 1.10,2013-02-14 18:39:00,
2013-02-14 13:54:00,52.3,38.0,30.04,North,353,3.0,5.0,58,0.00,,,0.00,weatherlink.com 1.10,2013-02-14 18:54:00,
2013-02-14 14:09:00,52.3,38.0,30.03,West,281,2.0,4.0,59,0.00,,,0.00,weatherlink.com 1.10,2013-02-14 19:09:00,
2013-02-14 14:24:00,53.1,38.0,30.04,ESE,120,0.0,2.0,57,0.00,,,0.00,weatherlink.com 1.10,2013-02-14 19:24:00,
2013-02-14 14:39:00,53.2,38.0,30.04,East,81,5.0,5.0,57,0.00,,,0.00,weatherlink.com 1.10,2013-02-14 19:39:00,
2013-02-14 14:54:00,52.9,38.0,30.02,ENE,73,1.0,3.0,58,0.00,,,0.00,weatherlink.com 1.10,2013-02-14 19:54:00,
2013-02-14 15:09:00,52.8,39.0,30.02,SE,130,1.0,3.0,59,0.00,,,0.00,weatherlink.com 1.10,2013-02-14 20:09:00,
2013-02-14 15:24:00,53.3,39.0,30.01,NE,55,3.0,4.0,58,0.00,,,0.00,weatherlink.com 1.10,2013-02-14 20:24:00,
2013-02-14 15:39:00,53.4,39.0,30.02,North,2,0.0,2.0,58,0.00,,,0.00,weatherlink.com 1.10,2013-02-14 20:39:00,
2013-02-14 15:54:00,54.1,39.0,30.03,SSE,153,1.0,2.0,57,0.00,,,0.00,weatherlink.com 1.10,2013-02-14 20:54:00,
2013-02-14 16:09:00,53.6,39.0,30.03,WNW,303,2.0,3.0,58,0.00,,,0.00,weatherlink.com 1.10,2013-02-14 21:09:00,
2013-02-14 16:25:00,52.5,40.0,30.03,SE,127,1.0,3.0,63,0.00,,,0.00,weatherlink.com 1.10,2013-02-14 21:25:00,
2013-02-14 16:40:00,51.6,40.0,30.03,SSE,154,0.0,5.0,65,0.00,,,0.00,weatherlink.com 1.10,2013-02-14 21:40:00,
2013-02-14 16:55:00,51.5,40.0,30.04,SE,137,2.0,3.0,66,0.00,,,0.00,weatherlink.com 1.10,2013-02-14 21:55:00,
2013-02-14 17:10:00,50.8,41.0,30.03,SSE,149,0.0,2.0,68,0.00,,,0.00,weatherlink.com 1.10,2013-02-14 22:10:00,
2013-02-14 17:25:00,50.2,41.0,30.03,SE,142,0.0,2.0,70,0.00,,,0.00,weatherlink.com 1.10,2013-02-14 22:25:00,
2013-02-14 17:40:00,49.3,41.0,30.03,SE,129,0.0,2.0,73,0.00,,,0.00,weatherlink.com 1.10,2013-02-14 22:40:00,
2013-02-14 17:55:00,48.5,41.0,30.02,SE,130,0.0,1.0,76,0.00,,,0.00,weatherlink.com 1.10,2013-02-14 22:55:00,
2013-02-14 18:10:00,47.7,41.0,30.04,SE,129,0.0,1.0,78,0.00,,,0.00,weatherlink.com 1.10,2013-02-14 23:10:00,
2013-02-14 18:25:00,47.3,41.0,30.07,West,275,0.0,2.0,78,0.00,,,0.00,weatherlink.com 1.10,2013-02-14 23:25:00,
2013-02-14 18:40:00,46.9,41.0,30.07,WNW,296,0.0,1.0,79,0.00,,,0.00,weatherlink.com 1.10,2013-02-14 23:40:00,
2013-02-14 18:55:00,46.0,41.0,30.06,WNW,296,0.0,0.0,82,0.00,,,0.00,weatherlink.com 1.10,2013-02-14 23:55:00,
2013-02-14 19:10:00,45.3,41.0,30.05,WNW,296,0.0,0.0,84,0.00,,,0.00,weatherlink.com 1.10,2013-02-15 00:10:00,
2013-02-14 19:25:00,45.3,41.0,30.05,WNW,296,0.0,0.0,86,0.00,,,0.00,weatherlink.com 1.10,2013-02-15 00:25:00,
2013-02-14 19:40:00,44.9,41.0,30.06,WNW,296,0.0,0.0,87,0.00,,,0.00,weatherlink.com 1.10,2013-02-15 00:40:00,
2013-02-14 19:55:00,44.7,41.0,30.06,WNW,296,0.0,0.0,88,0.00,,,0.00,weatherlink.com 1.10,2013-02-15 00:55:00,
2013-02-14 20:10:00,44.6,42.0,30.07,WNW,296,0.0,0.0,89,0.00,,,0.00,weatherlink.com 1.10,2013-02-15 01:10:00,
2013-02-14 20:25:00,44.1,41.0,30.08,WNW,296,0.0,0.0,88,0.00,,,0.00,weatherlink.com 1.10,2013-02-15 01:25:00,
2013-02-14 20:40:00,44.1,41.0,30.09,WNW,296,0.0,0.0,90,0.00,,,0.00,weatherlink.com 1.10,2013-02-15 01:40:00,
2013-02-14 20:55:00,43.7,41.0,30.09,WNW,296,0.0,0.0,90,0.00,,,0.00,weatherlink.com 1.10,2013-02-15 01:55:00,
2013-02-14 21:10:00,43.3,41.0,30.09,WNW,296,0.0,0.0,91,0.00,,,0.00,weatherlink.com 1.10,2013-02-15 02:10:00,
2013-02-14 21:25:00,43.0,41.0,30.08,WNW,296,0.0,0.0,92,0.00,,,0.00,weatherlink.com 1.10,2013-02-15 02:25:00,
2013-02-14 21:40:00,42.6,41.0,30.09,WNW,296,0.0,0.0,93,0.00,,,0.00,weatherlink.com 1.10,2013-02-15 02:40:00,
2013-02-14 21:56:00,42.4,41.0,30.08,WNW,296,0.0,0.0,94,0.00,,,0.00,weatherlink.com 1.10,2013-02-15 02:56:00,
2013-02-14 22:10:00,42.0,40.0,30.07,WNW,296,0.0,0.0,94,0.00,,,0.00,weatherlink.com 1.10,2013-02-15 03:10:00,
2013-02-14 22:25:00,41.6,40.0,30.07,WNW,296,0.0,0.0,94,0.00,,,0.00,weatherlink.com 1.10,2013-02-15 03:25:00,
2013-02-14 22:40:00,41.0,39.0,30.07,WNW,296,0.0,0.0,94,0.00,,,0.00,weatherlink.com 1.10,2013-02-15 03:40:00,
2013-02-14 22:55:00,41.1,40.0,30.08,WNW,296,0.0,0.0,95,0.00,,,0.00,weatherlink.com 1.10,2013-02-15 03:55:00,
2013-02-14 23:10:00,40.9,40.0,30.09,WNW,296,0.0,0.0,96,0.00,,,0.00,weatherlink.com 1.10,2013-02-15 04:10:00,
2013-02-14 23:25:00,40.7,40.0,30.08,WNW,296,0.0,0.0,96,0.00,,,0.00,weatherlink.com 1.10,2013-02-15 04:25:00,
2013-02-14 23:40:00,40.7,40.0,30.08,WNW,296,0.0,0.0,96,0.00,,,0.00,weatherlink.com 1.10,2013-02-15 04:40:00,
2013-02-14 23:55:00,40.4,39.0,30.07,WNW,296,0.0,0.0,96,0.00,,,0.00,weatherlink.com 1.10,2013-02-15 04:55:00,